sensor_id;sensor_type;location;lat;lon;timestamp;pressure;altitude;pressure_sealevel;temperature;humidity
7832;BME280;3961;42.058;25.586;2023-03-05T00:01:32;62901.41;;;6.14;100.00
7832;BME280;3961;42.058;25.586;2023-03-05T00:03:58;62893.91;;;6.07;100.00
7832;BME280;3961;42.058;25.586;2023-03-05T00:06:27;62907.69;;;6.19;100.00
7832;BME280;3961;42.058;25.586;2023-03-05T00:08:54;62916.00;;;6.29;100.00
7832;BME280;3961;42.058;25.586;2023-03-05T00:11:21;62889.56;;;6.05;100.00
7832;BME280;3961;42.058;25.586;2023-03-05T00:13:47;62918.03;;;6.28;100.00
7832;BME280;3961;42.058;25.586;2023-03-05T00:16:15;62891.28;;;6.07;100.00
7832;BME280;3961;42.058;25.586;2023-03-05T00:18:40;62891.97;;;6.03;100.00
7832;BME280;3961;42.058;25.586;2023-03-05T00:21:28;62907.13;;;6.19;100.00
7832;BME280;3961;42.058;25.586;2023-03-05T00:23:56;62920.91;;;6.31;100.00
7832;BME280;3961;42.058;25.586;2023-03-05T00:26:23;62912.63;;;6.21;100.00
7832;BME280;3961;42.058;25.586;2023-03-05T00:28:49;62907.69;;;6.19;100.00
7832;BME280;3961;42.058;25.586;2023-03-05T00:31:18;62927.00;;;6.34;100.00
7832;BME280;3961;42.058;25.586;2023-03-05T00:33:44;62891.88;;;6.07;100.00
7832;BME280;3961;42.058;25.586;2023-03-05T00:36:10;62920.91;;;6.31;100.00
7832;BME280;3961;42.058;25.586;2023-03-05T00:38:36;62892.19;;;6.05;100.00
7832;BME280;3961;42.058;25.586;2023-03-05T00:41:02;62859.09;;;5.79;100.00
7832;BME280;3961;42.058;25.586;2023-03-05T00:43:28;62875.88;;;5.89;100.00
7832;BME280;3961;42.058;25.586;2023-03-05T00:45:53;62882.75;;;5.95;100.00
7832;BME280;3961;42.058;25.586;2023-03-05T00:48:19;62900.56;;;6.11;100.00
7832;BME280;3961;42.058;25.586;2023-03-05T00:50:46;62892.19;;;6.05;100.00
7832;BME280;3961;42.058;25.586;2023-03-05T00:53:12;62893.84;;;6.12;100.00
7832;BME280;3961;42.058;25.586;2023-03-05T00:55:37;62837.59;;;5.57;100.00
7832;BME280;3961;42.058;25.586;2023-03-05T00:58:03;62831.88;;;5.52;100.00
7832;BME280;3961;42.058;25.586;2023-03-05T01:00:28;62843.59;;;5.65;100.00
7832;BME280;3961;42.058;25.586;2023-03-05T01:02:54;62829.00;;;5.50;100.00
7832;BME280;3961;42.058;25.586;2023-03-05T01:05:19;62810.63;;;5.33;100.00
7832;BME280;3961;42.058;25.586;2023-03-05T01:07:45;62792.28;;;5.17;100.00
7832;BME280;3961;42.058;25.586;2023-03-05T01:10:11;62789.97;;;5.15;100.00
7832;BME280;3961;42.058;25.586;2023-03-05T01:12:37;62782.19;;;5.11;100.00
7832;BME280;3961;42.058;25.586;2023-03-05T01:15:04;62792.84;;;5.18;100.00
7832;BME280;3961;42.058;25.586;2023-03-05T01:17:30;62802.00;;;5.26;100.00
7832;BME280;3961;42.058;25.586;2023-03-05T01:19:56;62806.94;;;5.28;100.00
7832;BME280;3961;42.058;25.586;2023-03-05T01:22:21;62794.56;;;5.19;100.00
7832;BME280;3961;42.058;25.586;2023-03-05T01:24:47;62798.31;;;5.20;100.00
7832;BME280;3961;42.058;25.586;2023-03-05T01:27:12;62800.63;;;5.22;100.00
7832;BME280;3961;42.058;25.586;2023-03-05T01:29:38;62789.06;;;5.17;100.00
7832;BME280;3961;42.058;25.586;2023-03-05T01:32:04;62758.41;;;4.87;100.00
7832;BME280;3961;42.058;25.586;2023-03-05T01:34:29;62726.84;;;4.59;100.00
7832;BME280;3961;42.058;25.586;2023-03-05T01:36:55;62722.50;;;4.58;100.00
7832;BME280;3961;42.058;25.586;2023-03-05T01:39:20;62732.34;;;4.62;100.00
7832;BME280;3961;42.058;25.586;2023-03-05T01:41:46;62716.78;;;4.53;100.00
7832;BME280;3961;42.058;25.586;2023-03-05T01:44:25;62734.88;;;4.66;100.00
7832;BME280;3961;42.058;25.586;2023-03-05T01:46:51;62722.63;;;4.53;100.00
7832;BME280;3961;42.058;25.586;2023-03-05T01:54:16;62735.78;;;4.65;100.00
7832;BME280;3961;42.058;25.586;2023-03-05T01:56:45;62758.19;;;4.85;100.00
7832;BME280;3961;42.058;25.586;2023-03-05T01:59:11;62731.94;;;4.68;100.00
7832;BME280;3961;42.058;25.586;2023-03-05T02:01:40;62717.94;;;4.54;100.00
7832;BME280;3961;42.058;25.586;2023-03-05T02:04:08;62649.13;;;3.93;100.00
7832;BME280;3961;42.058;25.586;2023-03-05T02:06:36;62671.16;;;4.15;100.00
7832;BME280;3961;42.058;25.586;2023-03-05T02:09:02;62715.41;;;4.49;100.00
7832;BME280;3961;42.058;25.586;2023-03-05T02:11:28;62728.34;;;4.58;100.00
7832;BME280;3961;42.058;25.586;2023-03-05T02:13:55;62722.25;;;4.55;100.00
7832;BME280;3961;42.058;25.586;2023-03-05T02:16:20;62714.25;;;4.48;100.00
7832;BME280;3961;42.058;25.586;2023-03-05T02:18:46;62706.78;;;4.42;100.00
7832;BME280;3961;42.058;25.586;2023-03-05T02:21:11;62680.31;;;4.23;100.00
7832;BME280;3961;42.058;25.586;2023-03-05T02:23:37;62687.06;;;4.22;100.00
7832;BME280;3961;42.058;25.586;2023-03-05T02:26:06;62678.38;;;4.19;100.00
7832;BME280;3961;42.058;25.586;2023-03-05T02:28:42;62681.56;;;4.19;100.00
7832;BME280;3961;42.058;25.586;2023-03-05T02:31:12;62681.47;;;4.24;100.00
7832;BME280;3961;42.058;25.586;2023-03-05T02:33:38;62679.28;;;4.17;100.00
7832;BME280;3961;42.058;25.586;2023-03-05T02:36:04;62676.97;;;4.15;100.00
7832;BME280;3961;42.058;25.586;2023-03-05T02:38:29;62666.91;;;4.09;100.00
7832;BME280;3961;42.058;25.586;2023-03-05T02:40:55;62654.03;;;3.95;100.00
7832;BME280;3961;42.058;25.586;2023-03-05T02:43:20;62627.94;;;3.74;100.00
7832;BME280;3961;42.058;25.586;2023-03-05T02:45:46;62609.03;;;3.57;100.00
7832;BME280;3961;42.058;25.586;2023-03-05T02:48:11;62622.78;;;3.69;100.00
7832;BME280;3961;42.058;25.586;2023-03-05T02:50:37;62619.91;;;3.67;100.00
7832;BME280;3961;42.058;25.586;2023-03-05T02:53:04;62630.56;;;3.74;100.00
7832;BME280;3961;42.058;25.586;2023-03-05T02:55:30;62642.59;;;3.85;100.00
7832;BME280;3961;42.058;25.586;2023-03-05T02:57:56;62624.00;;;3.66;100.00
7832;BME280;3961;42.058;25.586;2023-03-05T03:00:21;62643.41;;;3.88;100.00
7832;BME280;3961;42.058;25.586;2023-03-05T03:02:47;62634.00;;;3.77;100.00
7832;BME280;3961;42.058;25.586;2023-03-05T03:05:12;62636.28;;;3.79;100.00
7832;BME280;3961;42.058;25.586;2023-03-05T03:07:37;62630.56;;;3.74;100.00
7832;BME280;3961;42.058;25.586;2023-03-05T03:10:04;62634.91;;;3.76;100.00
7832;BME280;3961;42.058;25.586;2023-03-05T03:12:29;62644.00;;;3.88;100.00
7832;BME280;3961;42.058;25.586;2023-03-05T03:14:55;62656.59;;;3.99;100.00
7832;BME280;3961;42.058;25.586;2023-03-05T03:17:20;62623.59;;;3.72;100.00
7832;BME280;3961;42.058;25.586;2023-03-05T03:19:46;62633.09;;;3.79;100.00
7832;BME280;3961;42.058;25.586;2023-03-05T03:22:13;62575.22;;;3.27;100.00
7832;BME280;3961;42.058;25.586;2023-03-05T03:24:42;62633.66;;;3.79;100.00
7832;BME280;3961;42.058;25.586;2023-03-05T03:27:08;62617.53;;;3.69;100.00
7832;BME280;3961;42.058;25.586;2023-03-05T03:29:34;62625.88;;;3.75;100.00
7832;BME280;3961;42.058;25.586;2023-03-05T03:32:00;62606.19;;;3.55;100.00
7832;BME280;3961;42.058;25.586;2023-03-05T03:34:25;62638.84;;;3.84;100.00
7832;BME280;3961;42.058;25.586;2023-03-05T03:36:51;62616.72;;;3.66;100.00
7832;BME280;3961;42.058;25.586;2023-03-05T03:39:17;62628.50;;;3.75;100.00
7832;BME280;3961;42.058;25.586;2023-03-05T03:41:51;62601.09;;;3.46;100.00
7832;BME280;3961;42.058;25.586;2023-03-05T03:44:19;62648.56;;;3.92;100.00
7832;BME280;3961;42.058;25.586;2023-03-05T03:46:46;62651.66;;;3.97;100.00
7832;BME280;3961;42.058;25.586;2023-03-05T03:49:15;62668.63;;;4.10;100.00
7832;BME280;3961;42.058;25.586;2023-03-05T03:51:41;62668.72;;;4.05;100.00
7832;BME280;3961;42.058;25.586;2023-03-05T03:54:07;62670.09;;;4.09;100.00
7832;BME280;3961;42.058;25.586;2023-03-05T03:56:32;62677.22;;;4.18;100.00
7832;BME280;3961;42.058;25.586;2023-03-05T03:58:58;62658.06;;;3.98;100.00
7832;BME280;3961;42.058;25.586;2023-03-05T04:01:23;62700.72;;;4.38;100.00
7832;BME280;3961;42.058;25.586;2023-03-05T04:03:49;62676.16;;;4.12;100.00
7832;BME280;3961;42.058;25.586;2023-03-05T04:06:14;62669.84;;;4.07;100.00
7832;BME280;3961;42.058;25.586;2023-03-05T04:08:40;62617.94;;;3.63;100.00
7832;BME280;3961;42.058;25.586;2023-03-05T04:11:05;62621.38;;;3.66;100.00
7832;BME280;3961;42.058;25.586;2023-03-05T04:13:31;62602.75;;;3.52;100.00
7832;BME280;3961;42.058;25.586;2023-03-05T04:15:56;62600.19;;;3.47;100.00
7832;BME280;3961;42.058;25.586;2023-03-05T04:18:22;62611.66;;;3.57;100.00
7832;BME280;3961;42.058;25.586;2023-03-05T04:20:48;62621.63;;;3.68;100.00
7832;BME280;3961;42.058;25.586;2023-03-05T04:23:14;62615.00;;;3.65;100.00
7832;BME280;3961;42.058;25.586;2023-03-05T04:25:40;62580.97;;;3.32;100.00
7832;BME280;3961;42.058;25.586;2023-03-05T04:28:05;62611.09;;;3.57;100.00
7832;BME280;3961;42.058;25.586;2023-03-05T04:30:31;62577.28;;;3.27;100.00
7832;BME280;3961;42.058;25.586;2023-03-05T04:32:58;62604.22;;;3.51;100.00
7832;BME280;3961;42.058;25.586;2023-03-05T04:35:24;62599.38;;;3.44;100.00
7832;BME280;3961;42.058;25.586;2023-03-05T04:37:49;62627.44;;;3.69;100.00
7832;BME280;3961;42.058;25.586;2023-03-05T04:40:15;62631.47;;;3.72;100.00
7832;BME280;3961;42.058;25.586;2023-03-05T04:42:42;62622.53;;;3.67;100.00
7832;BME280;3961;42.058;25.586;2023-03-05T04:45:08;62600.44;;;3.50;100.00
7832;BME280;3961;42.058;25.586;2023-03-05T04:47:34;62568.63;;;3.24;100.00
7832;BME280;3961;42.058;25.586;2023-03-05T04:49:59;62594.38;;;3.47;100.00
7832;BME280;3961;42.058;25.586;2023-03-05T04:52:25;62614.19;;;3.62;100.00
7832;BME280;3961;42.058;25.586;2023-03-05T04:54:51;62604.22;;;3.51;100.00
7832;BME280;3961;42.058;25.586;2023-03-05T04:57:18;62603.97;;;3.48;100.00
7832;BME280;3961;42.058;25.586;2023-03-05T04:59:44;62605.69;;;3.50;100.00
7832;BME280;3961;42.058;25.586;2023-03-05T05:02:09;62600.19;;;3.47;100.00
7832;BME280;3961;42.058;25.586;2023-03-05T05:04:35;62566.41;;;3.17;100.00
7832;BME280;3961;42.058;25.586;2023-03-05T05:07:01;62524.06;;;2.80;100.00
7832;BME280;3961;42.058;25.586;2023-03-05T05:09:26;62584.16;;;3.33;100.00
7832;BME280;3961;42.058;25.586;2023-03-05T05:11:52;62582.44;;;3.31;100.00
7832;BME280;3961;42.058;25.586;2023-03-05T05:14:19;62556.69;;;3.09;100.00
7832;BME280;3961;42.058;25.586;2023-03-05T05:16:44;62523.81;;;2.77;100.00
7832;BME280;3961;42.058;25.586;2023-03-05T05:19:10;62531.19;;;2.88;100.00
7832;BME280;3961;42.058;25.586;2023-03-05T05:21:36;62532.91;;;2.90;100.00
7832;BME280;3961;42.058;25.586;2023-03-05T05:24:01;62526.50;;;2.89;100.00
7832;BME280;3961;42.058;25.586;2023-03-05T05:26:27;62545.47;;;3.01;100.00
7832;BME280;3961;42.058;25.586;2023-03-05T05:28:53;62548.56;;;3.06;100.00
7832;BME280;3961;42.058;25.586;2023-03-05T05:31:18;62559.22;;;3.13;100.00
7832;BME280;3961;42.058;25.586;2023-03-05T05:33:44;62562.09;;;3.16;100.00
7832;BME280;3961;42.058;25.586;2023-03-05T05:36:12;62564.38;;;3.18;100.00
7832;BME280;3961;42.058;25.586;2023-03-05T05:38:38;62563.56;;;3.15;100.00
7832;BME280;3961;42.058;25.586;2023-03-05T05:41:09;62559.88;;;3.09;100.00
7832;BME280;3961;42.058;25.586;2023-03-05T05:43:35;62580.63;;;3.34;100.00
7832;BME280;3961;42.058;25.586;2023-03-05T05:46:03;62575.00;;;3.25;100.00
7832;BME280;3961;42.058;25.586;2023-03-05T05:48:31;62585.31;;;3.34;100.00
7832;BME280;3961;42.058;25.586;2023-03-05T05:50:57;62574.19;;;3.22;100.00
7832;BME280;3961;42.058;25.586;2023-03-05T05:53:23;62595.03;;;3.43;100.00
7832;BME280;3961;42.058;25.586;2023-03-05T05:55:49;62601.03;;;3.50;100.00
7832;BME280;3961;42.058;25.586;2023-03-05T05:58:14;62644.56;;;3.89;100.00
7832;BME280;3961;42.058;25.586;2023-03-05T06:00:40;62635.16;;;3.78;100.00
7832;BME280;3961;42.058;25.586;2023-03-05T06:03:06;62642.84;;;3.87;100.00
7832;BME280;3961;42.058;25.586;2023-03-05T06:05:32;62637.69;;;3.83;100.00
7832;BME280;3961;42.058;25.586;2023-03-05T06:07:58;62670.34;;;4.12;100.00
7832;BME280;3961;42.058;25.586;2023-03-05T06:10:23;62672.06;;;4.13;100.00
7832;BME280;3961;42.058;25.586;2023-03-05T06:12:49;62674.69;;;4.13;100.00
7832;BME280;3961;42.058;25.586;2023-03-05T06:15:14;62638.84;;;3.84;100.00
7832;BME280;3961;42.058;25.586;2023-03-05T06:17:40;62670.00;;;4.14;100.00
7832;BME280;3961;42.058;25.586;2023-03-05T06:20:06;62666.56;;;4.11;100.00
7832;BME280;3961;42.058;25.586;2023-03-05T06:22:35;62658.06;;;3.98;100.00
7832;BME280;3961;42.058;25.586;2023-03-05T06:25:02;62665.75;;;4.08;100.00
7832;BME280;3961;42.058;25.586;2023-03-05T06:27:27;62702.19;;;4.37;100.00
7832;BME280;3961;42.058;25.586;2023-03-05T06:29:53;62717.13;;;4.51;100.00
7832;BME280;3961;42.058;25.586;2023-03-05T06:32:21;62694.31;;;4.37;100.00
7832;BME280;3961;42.058;25.586;2023-03-05T06:34:47;62717.13;;;4.51;100.00
7832;BME280;3961;42.058;25.586;2023-03-05T06:37:12;62725.38;;;4.60;100.00
7832;BME280;3961;42.058;25.586;2023-03-05T06:39:38;62752.09;;;4.82;100.00
7832;BME280;3961;42.058;25.586;2023-03-05T06:42:04;62765.28;;;4.93;100.00
7832;BME280;3961;42.058;25.586;2023-03-05T06:44:29;62772.41;;;5.02;100.00
7832;BME280;3961;42.058;25.586;2023-03-05T06:46:55;62771.28;;;5.01;100.00
7832;BME280;3961;42.058;25.586;2023-03-05T06:49:20;62792.28;;;5.17;100.00
7832;BME280;3961;42.058;25.586;2023-03-05T06:51:46;62830.50;;;5.49;100.00
7832;BME280;3961;42.058;25.586;2023-03-05T06:54:13;62843.34;;;5.62;100.00
7832;BME280;3961;42.058;25.586;2023-03-05T06:56:41;62864.16;;;5.88;100.00
7832;BME280;3961;42.058;25.586;2023-03-05T06:59:07;62871.03;;;5.82;100.00
7832;BME280;3961;42.058;25.586;2023-03-05T07:01:33;62922.06;;;6.32;100.00
7832;BME280;3961;42.058;25.586;2023-03-05T07:03:59;62926.00;;;6.40;100.00
7832;BME280;3961;42.058;25.586;2023-03-05T07:06:28;62948.16;;;6.57;100.00
7832;BME280;3961;42.058;25.586;2023-03-05T07:08:56;62945.28;;;6.55;100.00
7832;BME280;3961;42.058;25.586;2023-03-05T07:11:22;62975.78;;;6.82;100.00
7832;BME280;3961;42.058;25.586;2023-03-05T07:13:48;62968.53;;;6.78;100.00
7832;BME280;3961;42.058;25.586;2023-03-05T07:16:23;62961.16;;;6.66;100.00
7832;BME280;3961;42.058;25.586;2023-03-05T07:18:49;62931.03;;;6.37;100.00
7832;BME280;3961;42.058;25.586;2023-03-05T07:21:26;62955.06;;;6.63;100.00
7832;BME280;3961;42.058;25.586;2023-03-05T07:23:53;62962.56;;;6.70;100.00
7832;BME280;3961;42.058;25.586;2023-03-05T07:26:19;63030.50;;;7.25;100.00
7832;BME280;3961;42.058;25.586;2023-03-05T07:28:45;63051.69;;;7.49;100.00
7832;BME280;3961;42.058;25.586;2023-03-05T07:31:15;63055.72;;;7.52;100.00
7832;BME280;3961;42.058;25.586;2023-03-05T07:33:44;63074.47;;;7.66;100.00
7832;BME280;3961;42.058;25.586;2023-03-05T07:36:11;63057.22;;;7.51;100.00
7832;BME280;3961;42.058;25.586;2023-03-05T07:38:37;63084.28;;;7.75;100.00
7832;BME280;3961;42.058;25.586;2023-03-05T07:41:05;63096.91;;;7.86;100.00
7832;BME280;3961;42.058;25.586;2023-03-05T07:43:31;63114.78;;;8.02;100.00
7832;BME280;3961;42.058;25.586;2023-03-05T07:45:57;63108.69;;;7.99;100.00
7832;BME280;3961;42.058;25.586;2023-03-05T07:48:23;63108.19;;;7.94;100.00
7832;BME280;3961;42.058;25.586;2023-03-05T07:50:49;63106.81;;;7.90;100.00
7832;BME280;3961;42.058;25.586;2023-03-05T07:53:15;63142.66;;;8.29;100.00
7832;BME280;3961;42.058;25.586;2023-03-05T07:55:49;63126.53;;;8.15;100.00
7832;BME280;3961;42.058;25.586;2023-03-05T07:58:15;63126.53;;;8.15;100.00
7832;BME280;3961;42.058;25.586;2023-03-05T08:00:40;63161.69;;;8.46;100.00
7832;BME280;3961;42.058;25.586;2023-03-05T08:03:06;63147.28;;;8.33;100.00
7832;BME280;3961;42.058;25.586;2023-03-05T08:05:31;63169.16;;;8.52;100.00
7832;BME280;3961;42.058;25.586;2023-03-05T08:07:57;63173.31;;;8.51;100.00
7832;BME280;3961;42.058;25.586;2023-03-05T08:10:23;63169.50;;;8.50;100.00
7832;BME280;3961;42.058;25.586;2023-03-05T08:12:48;63184.50;;;8.63;100.00
7832;BME280;3961;42.058;25.586;2023-03-05T08:15:14;63192.22;;;8.72;100.00
7832;BME280;3961;42.058;25.586;2023-03-05T08:17:39;63242.69;;;9.15;100.00
7832;BME280;3961;42.058;25.586;2023-03-05T08:20:05;63260.81;;;9.33;100.00
7832;BME280;3961;42.058;25.586;2023-03-05T08:22:35;63326.00;;;9.90;100.00
7832;BME280;3961;42.058;25.586;2023-03-05T08:25:03;63336.41;;;9.99;100.00
7832;BME280;3961;42.058;25.586;2023-03-05T08:27:29;63379.47;;;10.35;100.00
7832;BME280;3961;42.058;25.586;2023-03-05T08:29:55;63373.94;;;10.32;100.00
7832;BME280;3961;42.058;25.586;2023-03-05T08:32:20;63461.47;;;11.07;100.00
7832;BME280;3961;42.058;25.586;2023-03-05T08:34:46;63488.66;;;11.31;100.00
7832;BME280;3961;42.058;25.586;2023-03-05T08:37:11;63527.63;;;11.67;100.00
7832;BME280;3961;42.058;25.586;2023-03-05T08:39:37;63551.34;;;11.88;100.00
7832;BME280;3961;42.058;25.586;2023-03-05T08:42:03;63498.69;;;11.42;100.00
7832;BME280;3961;42.058;25.586;2023-03-05T08:44:29;63484.94;;;11.25;100.00
7832;BME280;3961;42.058;25.586;2023-03-05T08:46:55;63496.84;;;11.33;100.00
7832;BME280;3961;42.058;25.586;2023-03-05T08:49:20;63539.50;;;11.75;100.00
7832;BME280;3961;42.058;25.586;2023-03-05T08:51:46;63581.53;;;12.10;100.00
7832;BME280;3961;42.058;25.586;2023-03-05T08:54:11;63599.47;;;12.26;100.00
7832;BME280;3961;42.058;25.586;2023-03-05T08:56:37;63606.88;;;12.37;100.00
7832;BME280;3961;42.058;25.586;2023-03-05T08:59:03;63608.16;;;12.33;100.00
7832;BME280;3961;42.058;25.586;2023-03-05T09:01:29;63604.34;;;12.32;100.00
7832;BME280;3961;42.058;25.586;2023-03-05T09:03:57;63618.22;;;12.44;100.00
7832;BME280;3961;42.058;25.586;2023-03-05T09:06:24;63623.41;;;12.49;100.00
7832;BME280;3961;42.058;25.586;2023-03-05T09:08:49;63638.47;;;12.62;97.83
7832;BME280;3961;42.058;25.586;2023-03-05T09:11:16;63642.75;;;12.68;96.79
7832;BME280;3961;42.058;25.586;2023-03-05T09:13:42;63661.03;;;12.82;97.73
7832;BME280;3961;42.058;25.586;2023-03-05T09:16:11;63691.38;;;13.11;93.56
7832;BME280;3961;42.058;25.586;2023-03-05T09:18:37;63718.19;;;13.30;93.20
7832;BME280;3961;42.058;25.586;2023-03-05T09:21:12;63734.03;;;13.46;93.08
7832;BME280;3961;42.058;25.586;2023-03-05T09:23:38;63724.75;;;13.38;94.09
7832;BME280;3961;42.058;25.586;2023-03-05T09:26:09;63712.63;;;13.27;95.01
7832;BME280;3961;42.058;25.586;2023-03-05T09:28:36;63660.81;;;12.79;95.16
7832;BME280;3961;42.058;25.586;2023-03-05T09:31:05;63679.94;;;12.96;95.23
7832;BME280;3961;42.058;25.586;2023-03-05T09:33:33;63673.31;;;12.88;97.18
7832;BME280;3961;42.058;25.586;2023-03-05T09:36:00;63666.59;;;12.85;97.34
7832;BME280;3961;42.058;25.586;2023-03-05T09:38:26;63646.34;;;12.67;98.11
7832;BME280;3961;42.058;25.586;2023-03-05T09:41:00;63685.59;;;13.06;97.94
7832;BME280;3961;42.058;25.586;2023-03-05T09:44:10;63711.22;;;13.24;99.63
7832;BME280;3961;42.058;25.586;2023-03-05T09:46:51;63741.81;;;13.55;97.90
7832;BME280;3961;42.058;25.586;2023-03-05T09:52:14;63725.91;;;13.39;97.59
7832;BME280;3961;42.058;25.586;2023-03-05T09:54:43;63756.75;;;13.61;98.36
7832;BME280;3961;42.058;25.586;2023-03-05T09:57:23;63769.16;;;13.74;96.00
7832;BME280;3961;42.058;25.586;2023-03-05T09:59:56;63811.69;;;14.14;93.89
7832;BME280;3961;42.058;25.586;2023-03-05T10:02:25;63847.44;;;14.43;92.84
7832;BME280;3961;42.058;25.586;2023-03-05T10:04:59;63855.00;;;14.50;93.39
7832;BME280;3961;42.058;25.586;2023-03-05T10:07:31;63843.34;;;14.39;92.15
7832;BME280;3961;42.058;25.586;2023-03-05T10:10:01;63887.72;;;14.81;91.22
7832;BME280;3961;42.058;25.586;2023-03-05T10:12:41;63845.59;;;14.46;91.66
7832;BME280;3961;42.058;25.586;2023-03-05T10:15:12;63826.09;;;14.20;92.44
7832;BME280;3961;42.058;25.586;2023-03-05T10:18:40;63856.16;;;14.51;89.93
7832;BME280;3961;42.058;25.586;2023-03-05T10:23:26;63903.94;;;14.95;87.97
7832;BME280;3961;42.058;25.586;2023-03-05T10:29:00;63930.19;;;15.13;85.42
7832;BME280;3961;42.058;25.586;2023-03-05T10:31:45;63924.97;;;15.08;83.70
7832;BME280;3961;42.058;25.586;2023-03-05T10:39:51;63793.13;;;13.98;88.24
7832;BME280;3961;42.058;25.586;2023-03-05T10:45:31;63872.38;;;14.65;89.16
7832;BME280;3961;42.058;25.586;2023-03-05T10:48:18;63885.97;;;14.79;89.31
7832;BME280;3961;42.058;25.586;2023-03-05T10:50:53;63880.97;;;14.77;89.75
7832;BME280;3961;42.058;25.586;2023-03-05T10:54:01;63863.13;;;14.57;89.85
7832;BME280;3961;42.058;25.586;2023-03-05T10:56:29;63858.59;;;14.60;90.81
7832;BME280;3961;42.058;25.586;2023-03-05T10:58:56;63818.66;;;14.20;90.25
7832;BME280;3961;42.058;25.586;2023-03-05T11:01:22;63846.50;;;14.44;90.23
7832;BME280;3961;42.058;25.586;2023-03-05T11:06:42;63839.53;;;14.38;90.65
7832;BME280;3961;42.058;25.586;2023-03-05T11:09:28;63866.13;;;14.55;91.21
7832;BME280;3961;42.058;25.586;2023-03-05T11:12:04;63816.94;;;14.19;91.25
7832;BME280;3961;42.058;25.586;2023-03-05T11:14:31;63829.66;;;14.30;89.42
7832;BME280;3961;42.058;25.586;2023-03-05T11:17:02;63829.47;;;14.27;90.66
7832;BME280;3961;42.058;25.586;2023-03-05T11:19:30;63830.03;;;14.28;90.21
7832;BME280;3961;42.058;25.586;2023-03-05T11:22:18;63828.28;;;14.26;89.89
7832;BME280;3961;42.058;25.586;2023-03-05T11:25:12;63845.34;;;14.43;90.42
7832;BME280;3961;42.058;25.586;2023-03-05T11:30:24;63821.22;;;14.25;91.58
7832;BME280;3961;42.058;25.586;2023-03-05T11:33:06;63825.84;;;14.29;91.64
7832;BME280;3961;42.058;25.586;2023-03-05T11:35:34;63828.97;;;14.34;92.59
7832;BME280;3961;42.058;25.586;2023-03-05T11:38:02;63820.41;;;14.22;93.16
7832;BME280;3961;42.058;25.586;2023-03-05T11:40:30;63792.22;;;13.99;94.12
7832;BME280;3961;42.058;25.586;2023-03-05T11:42:58;63808.81;;;14.11;93.80
7832;BME280;3961;42.058;25.586;2023-03-05T11:45:24;63798.34;;;14.02;94.19
7832;BME280;3961;42.058;25.586;2023-03-05T11:48:15;63800.91;;;14.07;93.39
7832;BME280;3961;42.058;25.586;2023-03-05T11:50:44;63815.75;;;14.18;93.03
7832;BME280;3961;42.058;25.586;2023-03-05T11:53:18;63825.41;;;14.24;93.36
7832;BME280;3961;42.058;25.586;2023-03-05T11:58:40;63870.28;;;14.65;93.82
7832;BME280;3961;42.058;25.586;2023-03-05T12:01:28;63864.28;;;14.58;93.61
7832;BME280;3961;42.058;25.586;2023-03-05T12:03:55;63843.63;;;14.42;92.76
7832;BME280;3961;42.058;25.586;2023-03-05T12:08:57;63848.25;;;14.46;92.73
7832;BME280;3961;42.058;25.586;2023-03-05T12:11:31;63859.28;;;14.56;92.13
7832;BME280;3961;42.058;25.586;2023-03-05T12:16:38;63854.75;;;14.47;91.52
7832;BME280;3961;42.058;25.586;2023-03-05T12:21:58;63877.25;;;14.71;91.36
7832;BME280;3961;42.058;25.586;2023-03-05T12:29:39;63871.09;;;14.68;90.55
7832;BME280;3961;42.058;25.586;2023-03-05T12:35:14;63895.38;;;14.83;90.78
7832;BME280;3961;42.058;25.586;2023-03-05T12:42:52;63868.53;;;14.64;91.74
7832;BME280;3961;42.058;25.586;2023-03-05T12:47:44;63829.66;;;14.30;92.40
7832;BME280;3961;42.058;25.586;2023-03-05T12:53:15;63861.03;;;14.57;93.07
7832;BME280;3961;42.058;25.586;2023-03-05T13:00:51;63876.69;;;14.71;89.97
7832;BME280;3961;42.058;25.586;2023-03-05T13:03:29;63845.00;;;14.45;90.65
7832;BME280;3961;42.058;25.586;2023-03-05T13:05:58;63852.09;;;14.47;89.46
7832;BME280;3961;42.058;25.586;2023-03-05T13:08:26;63848.25;;;14.46;90.89
7832;BME280;3961;42.058;25.586;2023-03-05T13:11:00;63846.50;;;14.44;90.25
7832;BME280;3961;42.058;25.586;2023-03-05T13:13:37;63842.53;;;14.36;90.53
7832;BME280;3961;42.058;25.586;2023-03-05T13:16:16;63835.81;;;14.33;89.77
7832;BME280;3961;42.058;25.586;2023-03-05T13:18:46;63803.34;;;14.04;90.26
7832;BME280;3961;42.058;25.586;2023-03-05T13:21:14;63824.81;;;14.23;90.83
7832;BME280;3961;42.058;25.586;2023-03-05T13:23:48;63835.81;;;14.33;89.91
7832;BME280;3961;42.058;25.586;2023-03-05T13:26:18;63829.31;;;14.32;88.55
7832;BME280;3961;42.058;25.586;2023-03-05T13:29:08;63833.72;;;14.33;89.04
7832;BME280;3961;42.058;25.586;2023-03-05T13:31:35;63850.69;;;14.43;89.68
7832;BME280;3961;42.058;25.586;2023-03-05T13:34:20;63849.19;;;14.44;89.81
7832;BME280;3961;42.058;25.586;2023-03-05T13:37:15;63838.47;;;14.33;89.90
7832;BME280;3961;42.058;25.586;2023-03-05T13:39:48;63842.78;;;14.39;88.63
7832;BME280;3961;42.058;25.586;2023-03-05T13:42:26;63848.25;;;14.46;89.75
7832;BME280;3961;42.058;25.586;2023-03-05T13:44:58;63847.44;;;14.43;89.99
7832;BME280;3961;42.058;25.586;2023-03-05T13:47:28;63825.63;;;14.26;88.46
7832;BME280;3961;42.058;25.586;2023-03-05T13:50:03;63840.47;;;14.37;88.79
7832;BME280;3961;42.058;25.586;2023-03-05T13:52:38;63852.09;;;14.47;89.16
7832;BME280;3961;42.058;25.586;2023-03-05T13:55:12;63809.38;;;14.12;89.07
7832;BME280;3961;42.058;25.586;2023-03-05T13:57:40;63822.50;;;14.21;90.97
7832;BME280;3961;42.058;25.586;2023-03-05T14:02:55;63800.34;;;14.06;88.68
7832;BME280;3961;42.058;25.586;2023-03-05T14:05:21;63825.03;;;14.26;88.17
7832;BME280;3961;42.058;25.586;2023-03-05T14:07:50;63815.75;;;14.18;88.89
7832;BME280;3961;42.058;25.586;2023-03-05T14:12:52;63833.16;;;14.33;87.86
7832;BME280;3961;42.058;25.586;2023-03-05T14:15:23;63833.72;;;14.33;88.62
7832;BME280;3961;42.058;25.586;2023-03-05T14:17:49;63805.66;;;14.06;88.12
7832;BME280;3961;42.058;25.586;2023-03-05T14:20:28;63786.53;;;13.90;89.95
7832;BME280;3961;42.058;25.586;2023-03-05T14:22:56;63799.06;;;13.98;89.23
7832;BME280;3961;42.058;25.586;2023-03-05T14:28:05;63846.59;;;14.40;88.12